sensor_id;sensor_type;location;lat;lon;timestamp;P1;durP1;ratioP1;P2;durP2;ratioP2
74892;SDS011;63446;56.272;43.922;2022-09-16T00:02:22;15.02;;;7.63;;
74892;SDS011;63446;56.272;43.922;2022-09-16T00:04:48;15.63;;;6.90;;
74892;SDS011;63446;56.272;43.922;2022-09-16T00:07:14;22.20;;;8.20;;
74892;SDS011;63446;56.272;43.922;2022-09-16T00:09:40;14.57;;;7.07;;
74892;SDS011;63446;56.272;43.922;2022-09-16T00:12:07;15.68;;;7.40;;
74892;SDS011;63446;56.272;43.922;2022-09-16T00:14:32;19.83;;;7.90;;
74892;SDS011;63446;56.272;43.922;2022-09-16T00:16:58;14.20;;;7.10;;
74892;SDS011;63446;56.272;43.922;2022-09-16T00:19:24;19.55;;;7.95;;
74892;SDS011;63446;56.272;43.922;2022-09-16T00:21:50;18.85;;;8.05;;
74892;SDS011;63446;56.272;43.922;2022-09-16T00:24:16;18.80;;;8.13;;
74892;SDS011;63446;56.272;43.922;2022-09-16T00:26:43;16.23;;;6.90;;
74892;SDS011;63446;56.272;43.922;2022-09-16T00:29:09;17.77;;;7.17;;
74892;SDS011;63446;56.272;43.922;2022-09-16T00:31:35;21.30;;;8.25;;
74892;SDS011;63446;56.272;43.922;2022-09-16T00:34:01;16.63;;;8.00;;
74892;SDS011;63446;56.272;43.922;2022-09-16T00:36:27;17.42;;;6.90;;
74892;SDS011;63446;56.272;43.922;2022-09-16T00:38:54;18.20;;;7.53;;
74892;SDS011;63446;56.272;43.922;2022-09-16T00:41:22;20.10;;;7.97;;
74892;SDS011;63446;56.272;43.922;2022-09-16T00:43:57;19.85;;;7.80;;
74892;SDS011;63446;56.272;43.922;2022-09-16T00:49:10;14.55;;;6.70;;
74892;SDS011;63446;56.272;43.922;2022-09-16T00:51:38;15.82;;;7.72;;
74892;SDS011;63446;56.272;43.922;2022-09-16T00:54:06;15.43;;;6.95;;
74892;SDS011;63446;56.272;43.922;2022-09-16T00:56:36;16.95;;;6.97;;
74892;SDS011;63446;56.272;43.922;2022-09-16T00:59:06;14.18;;;6.78;;
74892;SDS011;63446;56.272;43.922;2022-09-16T01:01:42;17.67;;;7.60;;
74892;SDS011;63446;56.272;43.922;2022-09-16T01:07:09;17.45;;;7.60;;
74892;SDS011;63446;56.272;43.922;2022-09-16T01:09:35;17.70;;;7.47;;
74892;SDS011;63446;56.272;43.922;2022-09-16T01:12:02;20.75;;;8.05;;
74892;SDS011;63446;56.272;43.922;2022-09-16T01:14:28;23.20;;;7.77;;
74892;SDS011;63446;56.272;43.922;2022-09-16T01:31:41;18.30;;;7.88;;
74892;SDS011;63446;56.272;43.922;2022-09-16T01:40:17;21.05;;;8.10;;
74892;SDS011;63446;56.272;43.922;2022-09-16T01:56:29;19.13;;;7.33;;
74892;SDS011;63446;56.272;43.922;2022-09-16T01:58:58;21.25;;;8.13;;
74892;SDS011;63446;56.272;43.922;2022-09-16T02:01:44;20.02;;;7.95;;
74892;SDS011;63446;56.272;43.922;2022-09-16T02:04:38;19.50;;;7.97;;
74892;SDS011;63446;56.272;43.922;2022-09-16T02:07:09;20.23;;;8.13;;
74892;SDS011;63446;56.272;43.922;2022-09-16T02:09:37;22.77;;;8.63;;
74892;SDS011;63446;56.272;43.922;2022-09-16T02:12:12;20.73;;;7.97;;
74892;SDS011;63446;56.272;43.922;2022-09-16T02:14:42;22.05;;;8.63;;
74892;SDS011;63446;56.272;43.922;2022-09-16T02:17:12;19.90;;;8.20;;
74892;SDS011;63446;56.272;43.922;2022-09-16T02:19:42;21.00;;;8.63;;
74892;SDS011;63446;56.272;43.922;2022-09-16T02:22:12;18.97;;;8.17;;
74892;SDS011;63446;56.272;43.922;2022-09-16T02:24:42;20.95;;;8.02;;
74892;SDS011;63446;56.272;43.922;2022-09-16T02:27:11;19.05;;;8.55;;
74892;SDS011;63446;56.272;43.922;2022-09-16T02:29:46;19.73;;;8.35;;
74892;SDS011;63446;56.272;43.922;2022-09-16T02:32:17;23.55;;;8.63;;
74892;SDS011;63446;56.272;43.922;2022-09-16T02:34:46;19.83;;;8.00;;
74892;SDS011;63446;56.272;43.922;2022-09-16T02:37:35;23.17;;;9.20;;
74892;SDS011;63446;56.272;43.922;2022-09-16T02:40:09;19.27;;;8.35;;
74892;SDS011;63446;56.272;43.922;2022-09-16T02:42:39;19.63;;;8.43;;
74892;SDS011;63446;56.272;43.922;2022-09-16T02:45:06;23.10;;;8.43;;
74892;SDS011;63446;56.272;43.922;2022-09-16T02:50:13;18.90;;;8.40;;
74892;SDS011;63446;56.272;43.922;2022-09-16T02:52:52;21.33;;;8.65;;
74892;SDS011;63446;56.272;43.922;2022-09-16T02:58:09;18.13;;;8.57;;
74892;SDS011;63446;56.272;43.922;2022-09-16T03:00:36;18.57;;;7.80;;
74892;SDS011;63446;56.272;43.922;2022-09-16T03:03:05;18.85;;;8.48;;
74892;SDS011;63446;56.272;43.922;2022-09-16T03:05:31;19.60;;;8.13;;
74892;SDS011;63446;56.272;43.922;2022-09-16T03:07:57;19.95;;;9.32;;
74892;SDS011;63446;56.272;43.922;2022-09-16T03:10:28;20.13;;;9.23;;
74892;SDS011;63446;56.272;43.922;2022-09-16T03:24:07;23.53;;;9.33;;
74892;SDS011;63446;56.272;43.922;2022-09-16T03:26:54;18.85;;;8.43;;
74892;SDS011;63446;56.272;43.922;2022-09-16T03:37:21;23.17;;;9.57;;
74892;SDS011;63446;56.272;43.922;2022-09-16T03:39:54;23.27;;;8.93;;
74892;SDS011;63446;56.272;43.922;2022-09-16T03:42:22;23.65;;;8.70;;
74892;SDS011;63446;56.272;43.922;2022-09-16T03:44:47;18.75;;;8.75;;
74892;SDS011;63446;56.272;43.922;2022-09-16T03:47:13;20.00;;;8.77;;
74892;SDS011;63446;56.272;43.922;2022-09-16T03:49:40;17.75;;;7.97;;
74892;SDS011;63446;56.272;43.922;2022-09-16T03:52:06;16.58;;;8.50;;
74892;SDS011;63446;56.272;43.922;2022-09-16T03:54:33;17.58;;;7.68;;
74892;SDS011;63446;56.272;43.922;2022-09-16T03:57:00;17.63;;;7.90;;
74892;SDS011;63446;56.272;43.922;2022-09-16T03:59:26;15.07;;;7.60;;
74892;SDS011;63446;56.272;43.922;2022-09-16T04:01:53;16.67;;;7.80;;
74892;SDS011;63446;56.272;43.922;2022-09-16T04:04:19;18.20;;;8.18;;
74892;SDS011;63446;56.272;43.922;2022-09-16T04:06:45;19.40;;;7.93;;
74892;SDS011;63446;56.272;43.922;2022-09-16T04:09:11;17.48;;;7.75;;
74892;SDS011;63446;56.272;43.922;2022-09-16T04:11:38;17.08;;;7.28;;
74892;SDS011;63446;56.272;43.922;2022-09-16T04:14:04;17.60;;;7.50;;
74892;SDS011;63446;56.272;43.922;2022-09-16T04:16:31;15.40;;;7.03;;
74892;SDS011;63446;56.272;43.922;2022-09-16T04:18:58;17.58;;;7.95;;
74892;SDS011;63446;56.272;43.922;2022-09-16T04:21:24;18.52;;;7.95;;
74892;SDS011;63446;56.272;43.922;2022-09-16T04:23:50;21.27;;;9.38;;
74892;SDS011;63446;56.272;43.922;2022-09-16T04:26:19;15.13;;;7.53;;
74892;SDS011;63446;56.272;43.922;2022-09-16T04:28:45;17.45;;;8.32;;
74892;SDS011;63446;56.272;43.922;2022-09-16T04:31:13;17.52;;;8.27;;
74892;SDS011;63446;56.272;43.922;2022-09-16T04:33:40;19.20;;;8.73;;
74892;SDS011;63446;56.272;43.922;2022-09-16T04:36:07;25.77;;;11.93;;
74892;SDS011;63446;56.272;43.922;2022-09-16T04:38:38;20.42;;;9.77;;
74892;SDS011;63446;56.272;43.922;2022-09-16T04:41:08;22.13;;;9.77;;
74892;SDS011;63446;56.272;43.922;2022-09-16T04:43:42;17.40;;;8.40;;
74892;SDS011;63446;56.272;43.922;2022-09-16T04:46:08;17.77;;;9.63;;
74892;SDS011;63446;56.272;43.922;2022-09-16T04:48:34;18.95;;;9.40;;
74892;SDS011;63446;56.272;43.922;2022-09-16T04:53:36;15.57;;;8.45;;
74892;SDS011;63446;56.272;43.922;2022-09-16T04:56:08;18.50;;;8.68;;
74892;SDS011;63446;56.272;43.922;2022-09-16T04:58:41;20.30;;;9.23;;
74892;SDS011;63446;56.272;43.922;2022-09-16T05:01:08;17.83;;;8.90;;
74892;SDS011;63446;56.272;43.922;2022-09-16T05:03:40;21.83;;;9.20;;
74892;SDS011;63446;56.272;43.922;2022-09-16T05:06:15;15.15;;;8.32;;
74892;SDS011;63446;56.272;43.922;2022-09-16T05:08:42;15.38;;;7.55;;
74892;SDS011;63446;56.272;43.922;2022-09-16T05:11:10;14.43;;;8.43;;
74892;SDS011;63446;56.272;43.922;2022-09-16T05:13:41;13.82;;;7.38;;
74892;SDS011;63446;56.272;43.922;2022-09-16T05:16:08;14.57;;;7.97;;
74892;SDS011;63446;56.272;43.922;2022-09-16T05:18:36;15.95;;;7.72;;
74892;SDS011;63446;56.272;43.922;2022-09-16T05:21:04;15.57;;;7.78;;
74892;SDS011;63446;56.272;43.922;2022-09-16T05:23:32;14.70;;;7.70;;
74892;SDS011;63446;56.272;43.922;2022-09-16T05:26:06;15.05;;;7.80;;
74892;SDS011;63446;56.272;43.922;2022-09-16T05:28:34;16.17;;;8.03;;
74892;SDS011;63446;56.272;43.922;2022-09-16T05:31:08;17.33;;;7.95;;
74892;SDS011;63446;56.272;43.922;2022-09-16T05:33:55;12.57;;;7.60;;
74892;SDS011;63446;56.272;43.922;2022-09-16T05:36:29;13.05;;;7.10;;
74892;SDS011;63446;56.272;43.922;2022-09-16T05:38:57;13.80;;;7.22;;
74892;SDS011;63446;56.272;43.922;2022-09-16T05:41:23;17.20;;;7.47;;
74892;SDS011;63446;56.272;43.922;2022-09-16T05:43:50;13.50;;;8.02;;
74892;SDS011;63446;56.272;43.922;2022-09-16T05:46:17;15.68;;;7.65;;
74892;SDS011;63446;56.272;43.922;2022-09-16T05:48:46;16.00;;;8.02;;
74892;SDS011;63446;56.272;43.922;2022-09-16T05:51:14;16.67;;;7.80;;
74892;SDS011;63446;56.272;43.922;2022-09-16T05:53:42;12.80;;;7.43;;
74892;SDS011;63446;56.272;43.922;2022-09-16T05:56:10;17.73;;;8.48;;
74892;SDS011;63446;56.272;43.922;2022-09-16T05:58:37;16.20;;;7.88;;
74892;SDS011;63446;56.272;43.922;2022-09-16T06:01:08;16.98;;;7.57;;
74892;SDS011;63446;56.272;43.922;2022-09-16T06:06:24;15.60;;;7.87;;
74892;SDS011;63446;56.272;43.922;2022-09-16T06:08:56;16.35;;;8.10;;
74892;SDS011;63446;56.272;43.922;2022-09-16T06:11:24;15.07;;;8.10;;
74892;SDS011;63446;56.272;43.922;2022-09-16T06:13:51;16.75;;;8.02;;
74892;SDS011;63446;56.272;43.922;2022-09-16T06:16:20;19.50;;;8.20;;
74892;SDS011;63446;56.272;43.922;2022-09-16T06:18:47;13.17;;;7.70;;
74892;SDS011;63446;56.272;43.922;2022-09-16T06:21:12;15.88;;;8.00;;
74892;SDS011;63446;56.272;43.922;2022-09-16T06:23:38;18.10;;;7.82;;
74892;SDS011;63446;56.272;43.922;2022-09-16T06:26:05;13.57;;;7.80;;
74892;SDS011;63446;56.272;43.922;2022-09-16T06:28:37;16.05;;;8.23;;
74892;SDS011;63446;56.272;43.922;2022-09-16T06:31:25;14.67;;;7.40;;
74892;SDS011;63446;56.272;43.922;2022-09-16T06:33:53;21.63;;;7.70;;
74892;SDS011;63446;56.272;43.922;2022-09-16T06:36:20;17.60;;;7.50;;
74892;SDS011;63446;56.272;43.922;2022-09-16T06:38:51;17.13;;;8.05;;
74892;SDS011;63446;56.272;43.922;2022-09-16T06:41:18;22.00;;;7.88;;
74892;SDS011;63446;56.272;43.922;2022-09-16T06:43:44;16.85;;;8.02;;
74892;SDS011;63446;56.272;43.922;2022-09-16T06:46:15;19.83;;;8.23;;
74892;SDS011;63446;56.272;43.922;2022-09-16T06:48:44;13.88;;;7.35;;
74892;SDS011;63446;56.272;43.922;2022-09-16T06:51:12;15.32;;;7.43;;
74892;SDS011;63446;56.272;43.922;2022-09-16T06:53:41;16.83;;;7.00;;
74892;SDS011;63446;56.272;43.922;2022-09-16T06:56:09;18.02;;;7.72;;
74892;SDS011;63446;56.272;43.922;2022-09-16T06:58:37;17.83;;;7.50;;
74892;SDS011;63446;56.272;43.922;2022-09-16T07:03:35;12.63;;;6.15;;
74892;SDS011;63446;56.272;43.922;2022-09-16T07:06:02;13.20;;;6.72;;
74892;SDS011;63446;56.272;43.922;2022-09-16T07:08:29;11.82;;;7.30;;
74892;SDS011;63446;56.272;43.922;2022-09-16T07:10:56;14.53;;;7.10;;
74892;SDS011;63446;56.272;43.922;2022-09-16T07:13:26;12.00;;;7.47;;
74892;SDS011;63446;56.272;43.922;2022-09-16T07:15:53;12.10;;;7.05;;
74892;SDS011;63446;56.272;43.922;2022-09-16T07:18:20;11.63;;;6.68;;
74892;SDS011;63446;56.272;43.922;2022-09-16T07:20:46;12.13;;;6.90;;
74892;SDS011;63446;56.272;43.922;2022-09-16T07:23:12;12.80;;;6.53;;
74892;SDS011;63446;56.272;43.922;2022-09-16T07:25:38;12.80;;;6.87;;
74892;SDS011;63446;56.272;43.922;2022-09-16T07:28:03;15.02;;;7.82;;
74892;SDS011;63446;56.272;43.922;2022-09-16T07:30:29;11.50;;;6.90;;
74892;SDS011;63446;56.272;43.922;2022-09-16T07:32:56;14.88;;;7.63;;
74892;SDS011;63446;56.272;43.922;2022-09-16T07:35:21;10.40;;;6.65;;
74892;SDS011;63446;56.272;43.922;2022-09-16T07:37:48;14.85;;;6.80;;
74892;SDS011;63446;56.272;43.922;2022-09-16T07:40:14;14.37;;;8.80;;
74892;SDS011;63446;56.272;43.922;2022-09-16T07:42:41;12.98;;;7.65;;
74892;SDS011;63446;56.272;43.922;2022-09-16T07:45:07;15.27;;;7.17;;
74892;SDS011;63446;56.272;43.922;2022-09-16T07:47:33;12.45;;;6.43;;
74892;SDS011;63446;56.272;43.922;2022-09-16T07:49:59;15.20;;;6.50;;
74892;SDS011;63446;56.272;43.922;2022-09-16T07:52:25;12.90;;;6.10;;
74892;SDS011;63446;56.272;43.922;2022-09-16T07:54:57;12.98;;;6.03;;
74892;SDS011;63446;56.272;43.922;2022-09-16T07:57:22;10.98;;;6.00;;
74892;SDS011;63446;56.272;43.922;2022-09-16T07:59:48;9.83;;;6.07;;
74892;SDS011;63446;56.272;43.922;2022-09-16T08:02:15;12.63;;;5.72;;
74892;SDS011;63446;56.272;43.922;2022-09-16T08:04:41;8.32;;;4.93;;
74892;SDS011;63446;56.272;43.922;2022-09-16T08:07:08;8.73;;;4.93;;
74892;SDS011;63446;56.272;43.922;2022-09-16T08:09:33;11.23;;;5.20;;
74892;SDS011;63446;56.272;43.922;2022-09-16T08:12:00;15.02;;;5.90;;
74892;SDS011;63446;56.272;43.922;2022-09-16T08:14:27;13.85;;;5.70;;
74892;SDS011;63446;56.272;43.922;2022-09-16T08:16:53;10.80;;;6.20;;
74892;SDS011;63446;56.272;43.922;2022-09-16T08:19:18;9.55;;;4.97;;
74892;SDS011;63446;56.272;43.922;2022-09-16T08:21:46;15.57;;;5.68;;
74892;SDS011;63446;56.272;43.922;2022-09-16T08:24:12;10.93;;;5.00;;
74892;SDS011;63446;56.272;43.922;2022-09-16T08:26:38;10.52;;;4.88;;
74892;SDS011;63446;56.272;43.922;2022-09-16T08:29:04;9.38;;;4.50;;
74892;SDS011;63446;56.272;43.922;2022-09-16T08:31:32;7.65;;;4.15;;
74892;SDS011;63446;56.272;43.922;2022-09-16T08:33:57;11.90;;;4.00;;
74892;SDS011;63446;56.272;43.922;2022-09-16T08:36:24;10.00;;;4.13;;
74892;SDS011;63446;56.272;43.922;2022-09-16T08:38:55;8.52;;;4.82;;
74892;SDS011;63446;56.272;43.922;2022-09-16T08:41:24;8.10;;;4.00;;
74892;SDS011;63446;56.272;43.922;2022-09-16T08:49:57;13.15;;;4.93;;
74892;SDS011;63446;56.272;43.922;2022-09-16T08:52:27;14.52;;;4.70;;
74892;SDS011;63446;56.272;43.922;2022-09-16T08:54:58;12.50;;;4.27;;
74892;SDS011;63446;56.272;43.922;2022-09-16T08:57:29;13.93;;;4.70;;
74892;SDS011;63446;56.272;43.922;2022-09-16T09:00:02;8.35;;;4.50;;
74892;SDS011;63446;56.272;43.922;2022-09-16T09:18:43;9.82;;;4.10;;
74892;SDS011;63446;56.272;43.922;2022-09-16T09:21:23;9.23;;;4.40;;
74892;SDS011;63446;56.272;43.922;2022-09-16T09:26:56;8.02;;;4.13;;
74892;SDS011;63446;56.272;43.922;2022-09-16T09:50:40;9.60;;;4.20;;
74892;SDS011;63446;56.272;43.922;2022-09-16T09:55:44;8.48;;;3.80;;
74892;SDS011;63446;56.272;43.922;2022-09-16T10:00:57;7.77;;;3.90;;
74892;SDS011;63446;56.272;43.922;2022-09-16T10:03:24;8.50;;;3.47;;
74892;SDS011;63446;56.272;43.922;2022-09-16T10:05:51;8.48;;;3.30;;
74892;SDS011;63446;56.272;43.922;2022-09-16T10:10:50;7.07;;;3.20;;
74892;SDS011;63446;56.272;43.922;2022-09-16T10:13:19;10.00;;;2.78;;
74892;SDS011;63446;56.272;43.922;2022-09-16T10:15:46;9.07;;;2.85;;
74892;SDS011;63446;56.272;43.922;2022-09-16T10:18:13;8.07;;;3.07;;
74892;SDS011;63446;56.272;43.922;2022-09-16T10:20:57;8.45;;;2.60;;
74892;SDS011;63446;56.272;43.922;2022-09-16T10:23:27;4.65;;;2.30;;
74892;SDS011;63446;56.272;43.922;2022-09-16T10:28:33;5.85;;;2.58;;
74892;SDS011;63446;56.272;43.922;2022-09-16T10:31:01;7.13;;;2.60;;
74892;SDS011;63446;56.272;43.922;2022-09-16T10:33:28;6.15;;;2.58;;
74892;SDS011;63446;56.272;43.922;2022-09-16T10:36:01;6.97;;;2.80;;
74892;SDS011;63446;56.272;43.922;2022-09-16T10:38:38;6.40;;;2.95;;
74892;SDS011;63446;56.272;43.922;2022-09-16T10:41:13;6.22;;;2.55;;
74892;SDS011;63446;56.272;43.922;2022-09-16T10:43:46;5.33;;;2.43;;
74892;SDS011;63446;56.272;43.922;2022-09-16T10:46:14;8.85;;;2.80;;
74892;SDS011;63446;56.272;43.922;2022-09-16T10:48:41;6.40;;;2.60;;
74892;SDS011;63446;56.272;43.922;2022-09-16T10:51:18;7.30;;;2.70;;
74892;SDS011;63446;56.272;43.922;2022-09-16T10:53:50;9.90;;;2.80;;
74892;SDS011;63446;56.272;43.922;2022-09-16T10:56:24;7.00;;;2.47;;
74892;SDS011;63446;56.272;43.922;2022-09-16T10:59:08;5.15;;;2.40;;
74892;SDS011;63446;56.272;43.922;2022-09-16T11:02:24;6.45;;;2.50;;
74892;SDS011;63446;56.272;43.922;2022-09-16T11:07:13;4.73;;;2.37;;
74892;SDS011;63446;56.272;43.922;2022-09-16T11:17:12;5.55;;;2.40;;
74892;SDS011;63446;56.272;43.922;2022-09-16T11:19:58;6.17;;;2.50;;
74892;SDS011;63446;56.272;43.922;2022-09-16T11:42:20;7.63;;;2.50;;
74892;SDS011;63446;56.272;43.922;2022-09-16T11:52:46;6.28;;;2.20;;
74892;SDS011;63446;56.272;43.922;2022-09-16T11:55:37;6.43;;;1.95;;
74892;SDS011;63446;56.272;43.922;2022-09-16T11:58:16;5.27;;;1.80;;
74892;SDS011;63446;56.272;43.922;2022-09-16T12:00:44;4.38;;;2.22;;
74892;SDS011;63446;56.272;43.922;2022-09-16T12:06:03;5.88;;;2.30;;
74892;SDS011;63446;56.272;43.922;2022-09-16T12:08:56;5.22;;;1.77;;
74892;SDS011;63446;56.272;43.922;2022-09-16T12:11:31;7.80;;;2.30;;
74892;SDS011;63446;56.272;43.922;2022-09-16T12:14:15;4.55;;;2.25;;
74892;SDS011;63446;56.272;43.922;2022-09-16T12:16:46;5.00;;;2.30;;
74892;SDS011;63446;56.272;43.922;2022-09-16T12:22:26;6.63;;;2.42;;
74892;SDS011;63446;56.272;43.922;2022-09-16T12:25:04;6.73;;;2.07;;
74892;SDS011;63446;56.272;43.922;2022-09-16T12:27:43;7.72;;;2.03;;
74892;SDS011;63446;56.272;43.922;2022-09-16T12:30:16;5.63;;;2.20;;
74892;SDS011;63446;56.272;43.922;2022-09-16T12:35:29;3.72;;;1.60;;
74892;SDS011;63446;56.272;43.922;2022-09-16T12:37:58;8.03;;;2.30;;
74892;SDS011;63446;56.272;43.922;2022-09-16T12:41:09;6.38;;;2.22;;
74892;SDS011;63446;56.272;43.922;2022-09-16T13:03:21;6.75;;;1.80;;
74892;SDS011;63446;56.272;43.922;2022-09-16T13:05:51;6.87;;;1.90;;
74892;SDS011;63446;56.272;43.922;2022-09-16T13:08:23;6.72;;;1.77;;
74892;SDS011;63446;56.272;43.922;2022-09-16T13:10:58;7.43;;;1.65;;
74892;SDS011;63446;56.272;43.922;2022-09-16T13:13:34;6.13;;;1.63;;
74892;SDS011;63446;56.272;43.922;2022-09-16T13:16:05;5.10;;;1.80;;
74892;SDS011;63446;56.272;43.922;2022-09-16T13:18:48;6.33;;;1.70;;
74892;SDS011;63446;56.272;43.922;2022-09-16T13:23:44;4.75;;;1.40;;
74892;SDS011;63446;56.272;43.922;2022-09-16T13:26:13;3.45;;;1.33;;
74892;SDS011;63446;56.272;43.922;2022-09-16T13:33:44;5.90;;;1.42;;
74892;SDS011;63446;56.272;43.922;2022-09-16T13:38:43;6.50;;;1.57;;
74892;SDS011;63446;56.272;43.922;2022-09-16T13:41:12;4.38;;;1.90;;
74892;SDS011;63446;56.272;43.922;2022-09-16T13:46:12;6.78;;;1.95;;
74892;SDS011;63446;56.272;43.922;2022-09-16T13:48:55;6.82;;;1.80;;
74892;SDS011;63446;56.272;43.922;2022-09-16T13:51:27;4.07;;;1.50;;
74892;SDS011;63446;56.272;43.922;2022-09-16T13:53:54;6.30;;;1.70;;
74892;SDS011;63446;56.272;43.922;2022-09-16T14:01:56;8.40;;;1.73;;
74892;SDS011;63446;56.272;43.922;2022-09-16T14:09:58;5.22;;;2.20;;
74892;SDS011;63446;56.272;43.922;2022-09-16T14:12:32;4.65;;;1.90;;
74892;SDS011;63446;56.272;43.922;2022-09-16T14:15:03;6.57;;;1.80;;
74892;SDS011;63446;56.272;43.922;2022-09-16T14:17:54;4.77;;;1.70;;
74892;SDS011;63446;56.272;43.922;2022-09-16T14:20:20;3.83;;;1.63;;
74892;SDS011;63446;56.272;43.922;2022-09-16T14:22:58;7.10;;;2.10;;
74892;SDS011;63446;56.272;43.922;2022-09-16T14:25:44;5.55;;;1.80;;
74892;SDS011;63446;56.272;43.922;2022-09-16T14:31:01;5.55;;;2.03;;
74892;SDS011;63446;56.272;43.922;2022-09-16T14:33:35;8.32;;;2.38;;
74892;SDS011;63446;56.272;43.922;2022-09-16T14:36:24;7.07;;;2.17;;
74892;SDS011;63446;56.272;43.922;2022-09-16T14:38:58;10.23;;;2.13;;
74892;SDS011;63446;56.272;43.922;2022-09-16T14:41:31;4.47;;;2.20;;
74892;SDS011;63446;56.272;43.922;2022-09-16T14:44:00;4.57;;;2.22;;
74892;SDS011;63446;56.272;43.922;2022-09-16T14:46:56;7.38;;;2.65;;
74892;SDS011;63446;56.272;43.922;2022-09-16T14:49:42;8.45;;;3.20;;
74892;SDS011;63446;56.272;43.922;2022-09-16T14:52:17;7.70;;;3.30;;
74892;SDS011;63446;56.272;43.922;2022-09-16T14:54:46;8.13;;;2.90;;
74892;SDS011;63446;56.272;43.922;2022-09-16T14:57:14;7.88;;;3.15;;
74892;SDS011;63446;56.272;43.922;2022-09-16T14:59:43;8.20;;;2.83;;
74892;SDS011;63446;56.272;43.922;2022-09-16T15:04:46;10.23;;;3.65;;
74892;SDS011;63446;56.272;43.922;2022-09-16T15:07:18;6.38;;;2.70;;
74892;SDS011;63446;56.272;43.922;2022-09-16T15:10:00;7.93;;;3.25;;
74892;SDS011;63446;56.272;43.922;2022-09-16T15:12:49;8.80;;;3.17;;
74892;SDS011;63446;56.272;43.922;2022-09-16T15:15:21;8.93;;;3.20;;
74892;SDS011;63446;56.272;43.922;2022-09-16T15:17:58;7.22;;;2.70;;
74892;SDS011;63446;56.272;43.922;2022-09-16T15:20:27;12.27;;;2.95;;
74892;SDS011;63446;56.272;43.922;2022-09-16T15:22:56;8.85;;;3.15;;
74892;SDS011;63446;56.272;43.922;2022-09-16T15:25:24;6.50;;;2.70;;
74892;SDS011;63446;56.272;43.922;2022-09-16T15:28:15;9.33;;;2.90;;
74892;SDS011;63446;56.272;43.922;2022-09-16T15:30:45;10.68;;;3.20;;
74892;SDS011;63446;56.272;43.922;2022-09-16T15:33:33;7.47;;;2.92;;
74892;SDS011;63446;56.272;43.922;2022-09-16T15:36:01;10.98;;;3.20;;
74892;SDS011;63446;56.272;43.922;2022-09-16T15:38:29;9.60;;;3.53;;
74892;SDS011;63446;56.272;43.922;2022-09-16T15:41:04;7.83;;;2.80;;
74892;SDS011;63446;56.272;43.922;2022-09-16T15:43:38;8.60;;;3.00;;
74892;SDS011;63446;56.272;43.922;2022-09-16T15:46:12;8.50;;;3.28;;
74892;SDS011;63446;56.272;43.922;2022-09-16T15:48:51;6.97;;;3.15;;
74892;SDS011;63446;56.272;43.922;2022-09-16T15:53:59;8.83;;;3.23;;
74892;SDS011;63446;56.272;43.922;2022-09-16T15:56:38;9.20;;;3.95;;
74892;SDS011;63446;56.272;43.922;2022-09-16T16:05:11;10.57;;;4.20;;
74892;SDS011;63446;56.272;43.922;2022-09-16T16:07:55;12.00;;;4.73;;
74892;SDS011;63446;56.272;43.922;2022-09-16T16:10:25;11.35;;;4.35;;
74892;SDS011;63446;56.272;43.922;2022-09-16T16:12:53;16.17;;;4.95;;
74892;SDS011;63446;56.272;43.922;2022-09-16T16:15:21;12.23;;;5.15;;
74892;SDS011;63446;56.272;43.922;2022-09-16T16:17:53;17.48;;;4.63;;
74892;SDS011;63446;56.272;43.922;2022-09-16T16:21:03;10.13;;;4.00;;
74892;SDS011;63446;56.272;43.922;2022-09-16T16:23:39;12.60;;;4.70;;
74892;SDS011;63446;56.272;43.922;2022-09-16T16:26:08;10.27;;;4.22;;
74892;SDS011;63446;56.272;43.922;2022-09-16T16:28:36;11.88;;;4.53;;
74892;SDS011;63446;56.272;43.922;2022-09-16T16:31:16;11.90;;;4.70;;
74892;SDS011;63446;56.272;43.922;2022-09-16T16:33:52;11.07;;;4.40;;
74892;SDS011;63446;56.272;43.922;2022-09-16T16:36:23;9.43;;;4.20;;
74892;SDS011;63446;56.272;43.922;2022-09-16T16:38:59;11.98;;;4.57;;
74892;SDS011;63446;56.272;43.922;2022-09-16T16:44:38;10.80;;;4.47;;
74892;SDS011;63446;56.272;43.922;2022-09-16T16:47:04;9.03;;;3.63;;
74892;SDS011;63446;56.272;43.922;2022-09-16T16:49:31;12.13;;;3.50;;
74892;SDS011;63446;56.272;43.922;2022-09-16T16:51:58;8.27;;;3.65;;
74892;SDS011;63446;56.272;43.922;2022-09-16T16:54:25;12.65;;;4.47;;
74892;SDS011;63446;56.272;43.922;2022-09-16T16:56:52;12.82;;;5.22;;
74892;SDS011;63446;56.272;43.922;2022-09-16T16:59:20;12.20;;;4.33;;
74892;SDS011;63446;56.272;43.922;2022-09-16T17:01:47;15.10;;;5.45;;
74892;SDS011;63446;56.272;43.922;2022-09-16T17:04:15;15.73;;;5.10;;
74892;SDS011;63446;56.272;43.922;2022-09-16T17:06:40;15.67;;;5.30;;
74892;SDS011;63446;56.272;43.922;2022-09-16T17:09:07;21.52;;;6.20;;
74892;SDS011;63446;56.272;43.922;2022-09-16T17:11:35;18.08;;;5.65;;
74892;SDS011;63446;56.272;43.922;2022-09-16T17:14:05;13.70;;;5.63;;
74892;SDS011;63446;56.272;43.922;2022-09-16T17:16:31;17.35;;;5.10;;
74892;SDS011;63446;56.272;43.922;2022-09-16T17:18:58;13.33;;;4.93;;
74892;SDS011;63446;56.272;43.922;2022-09-16T17:21:26;10.75;;;4.78;;
74892;SDS011;63446;56.272;43.922;2022-09-16T17:23:57;11.40;;;4.25;;
74892;SDS011;63446;56.272;43.922;2022-09-16T17:26:24;10.85;;;4.35;;
74892;SDS011;63446;56.272;43.922;2022-09-16T17:28:51;11.40;;;4.00;;
74892;SDS011;63446;56.272;43.922;2022-09-16T17:31:21;9.20;;;3.57;;
74892;SDS011;63446;56.272;43.922;2022-09-16T17:33:51;8.93;;;3.95;;
74892;SDS011;63446;56.272;43.922;2022-09-16T17:36:19;8.18;;;3.35;;
74892;SDS011;63446;56.272;43.922;2022-09-16T17:38:47;6.97;;;3.42;;
74892;SDS011;63446;56.272;43.922;2022-09-16T17:41:14;7.35;;;3.50;;
74892;SDS011;63446;56.272;43.922;2022-09-16T17:43:41;8.77;;;3.40;;
74892;SDS011;63446;56.272;43.922;2022-09-16T17:46:12;7.47;;;3.60;;
74892;SDS011;63446;56.272;43.922;2022-09-16T17:48:40;8.45;;;3.20;;
74892;SDS011;63446;56.272;43.922;2022-09-16T17:51:07;7.88;;;3.55;;
74892;SDS011;63446;56.272;43.922;2022-09-16T17:53:33;9.68;;;3.60;;
74892;SDS011;63446;56.272;43.922;2022-09-16T17:56:07;8.43;;;3.60;;
74892;SDS011;63446;56.272;43.922;2022-09-16T17:58:38;8.35;;;3.45;;
74892;SDS011;63446;56.272;43.922;2022-09-16T18:01:19;9.60;;;3.05;;
74892;SDS011;63446;56.272;43.922;2022-09-16T18:03:49;7.85;;;3.15;;
74892;SDS011;63446;56.272;43.922;2022-09-16T18:06:21;7.85;;;3.22;;
74892;SDS011;63446;56.272;43.922;2022-09-16T18:08:47;6.47;;;2.87;;
74892;SDS011;63446;56.272;43.922;2022-09-16T18:11:15;6.40;;;3.05;;
74892;SDS011;63446;56.272;43.922;2022-09-16T18:13:45;5.78;;;2.95;;
74892;SDS011;63446;56.272;43.922;2022-09-16T18:16:15;6.75;;;3.03;;
74892;SDS011;63446;56.272;43.922;2022-09-16T18:18:48;6.22;;;2.85;;
74892;SDS011;63446;56.272;43.922;2022-09-16T18:21:15;6.37;;;2.50;;
74892;SDS011;63446;56.272;43.922;2022-09-16T18:23:43;6.75;;;2.90;;
74892;SDS011;63446;56.272;43.922;2022-09-16T18:26:10;6.40;;;2.75;;
74892;SDS011;63446;56.272;43.922;2022-09-16T18:28:38;6.15;;;2.65;;
74892;SDS011;63446;56.272;43.922;2022-09-16T18:31:06;6.57;;;2.80;;
74892;SDS011;63446;56.272;43.922;2022-09-16T18:33:34;6.80;;;2.43;;
74892;SDS011;63446;56.272;43.922;2022-09-16T18:36:00;5.70;;;2.55;;
74892;SDS011;63446;56.272;43.922;2022-09-16T18:38:29;6.65;;;2.63;;
74892;SDS011;63446;56.272;43.922;2022-09-16T18:41:09;6.82;;;3.03;;
74892;SDS011;63446;56.272;43.922;2022-09-16T18:43:38;8.77;;;3.15;;